sensor_id;sensor_type;location;lat;lon;timestamp;P1;durP1;ratioP1;P2;durP2;ratioP2
29382;SDS011;16365;51.598;7.668;2022-12-18T00:02:11;86.13;;;31.95;;
29382;SDS011;16365;51.598;7.668;2022-12-18T00:04:39;73.05;;;33.00;;
29382;SDS011;16365;51.598;7.668;2022-12-18T00:07:05;77.43;;;33.33;;
29382;SDS011;16365;51.598;7.668;2022-12-18T00:09:32;71.65;;;30.15;;
29382;SDS011;16365;51.598;7.668;2022-12-18T00:12:05;72.53;;;30.52;;
29382;SDS011;16365;51.598;7.668;2022-12-18T00:14:40;78.28;;;34.25;;
29382;SDS011;16365;51.598;7.668;2022-12-18T00:17:07;71.80;;;30.60;;
29382;SDS011;16365;51.598;7.668;2022-12-18T00:19:34;75.50;;;31.98;;
29382;SDS011;16365;51.598;7.668;2022-12-18T00:22:00;88.78;;;36.92;;
29382;SDS011;16365;51.598;7.668;2022-12-18T00:24:27;76.13;;;33.05;;
29382;SDS011;16365;51.598;7.668;2022-12-18T00:26:53;74.53;;;32.33;;
29382;SDS011;16365;51.598;7.668;2022-12-18T00:29:19;90.55;;;34.55;;
29382;SDS011;16365;51.598;7.668;2022-12-18T00:31:46;74.50;;;32.67;;
29382;SDS011;16365;51.598;7.668;2022-12-18T00:34:13;145.48;;;49.10;;
29382;SDS011;16365;51.598;7.668;2022-12-18T00:36:40;198.30;;;62.10;;
29382;SDS011;16365;51.598;7.668;2022-12-18T00:39:07;145.40;;;50.72;;
29382;SDS011;16365;51.598;7.668;2022-12-18T00:41:34;105.05;;;38.67;;
29382;SDS011;16365;51.598;7.668;2022-12-18T00:44:19;79.97;;;33.55;;
29382;SDS011;16365;51.598;7.668;2022-12-18T00:46:45;85.35;;;35.17;;
29382;SDS011;16365;51.598;7.668;2022-12-18T00:49:13;72.53;;;32.08;;
29382;SDS011;16365;51.598;7.668;2022-12-18T00:51:41;70.20;;;30.67;;
29382;SDS011;16365;51.598;7.668;2022-12-18T00:56:37;75.88;;;30.10;;
29382;SDS011;16365;51.598;7.668;2022-12-18T00:59:14;69.15;;;30.55;;
29382;SDS011;16365;51.598;7.668;2022-12-18T01:01:40;66.53;;;30.90;;
29382;SDS011;16365;51.598;7.668;2022-12-18T01:04:07;73.45;;;31.38;;
29382;SDS011;16365;51.598;7.668;2022-12-18T01:06:35;75.85;;;32.85;;
29382;SDS011;16365;51.598;7.668;2022-12-18T01:09:02;74.03;;;30.75;;
29382;SDS011;16365;51.598;7.668;2022-12-18T01:11:29;81.97;;;34.92;;
29382;SDS011;16365;51.598;7.668;2022-12-18T01:13:55;72.80;;;32.55;;
29382;SDS011;16365;51.598;7.668;2022-12-18T01:16:22;90.18;;;34.75;;
29382;SDS011;16365;51.598;7.668;2022-12-18T01:18:52;79.07;;;33.15;;
29382;SDS011;16365;51.598;7.668;2022-12-18T01:21:21;85.55;;;33.35;;
29382;SDS011;16365;51.598;7.668;2022-12-18T01:26:19;73.25;;;32.70;;
29382;SDS011;16365;51.598;7.668;2022-12-18T01:28:46;77.75;;;31.92;;
29382;SDS011;16365;51.598;7.668;2022-12-18T01:33:44;82.25;;;33.58;;
29382;SDS011;16365;51.598;7.668;2022-12-18T01:36:15;83.32;;;34.85;;
29382;SDS011;16365;51.598;7.668;2022-12-18T01:38:43;76.05;;;32.13;;
29382;SDS011;16365;51.598;7.668;2022-12-18T01:41:10;83.72;;;33.30;;
29382;SDS011;16365;51.598;7.668;2022-12-18T01:43:55;84.43;;;34.38;;
29382;SDS011;16365;51.598;7.668;2022-12-18T01:46:25;91.57;;;37.85;;
29382;SDS011;16365;51.598;7.668;2022-12-18T01:49:00;72.53;;;32.47;;
29382;SDS011;16365;51.598;7.668;2022-12-18T01:51:27;79.57;;;34.28;;
29382;SDS011;16365;51.598;7.668;2022-12-18T01:53:56;76.15;;;31.88;;
29382;SDS011;16365;51.598;7.668;2022-12-18T01:56:24;82.00;;;34.47;;
29382;SDS011;16365;51.598;7.668;2022-12-18T02:01:17;86.10;;;32.35;;
29382;SDS011;16365;51.598;7.668;2022-12-18T02:03:44;79.00;;;31.88;;
29382;SDS011;16365;51.598;7.668;2022-12-18T02:09:02;68.57;;;29.52;;
29382;SDS011;16365;51.598;7.668;2022-12-18T02:11:39;71.32;;;29.98;;
29382;SDS011;16365;51.598;7.668;2022-12-18T02:14:31;65.57;;;29.77;;
29382;SDS011;16365;51.598;7.668;2022-12-18T02:17:36;74.32;;;30.88;;
29382;SDS011;16365;51.598;7.668;2022-12-18T02:20:15;63.83;;;29.65;;
29382;SDS011;16365;51.598;7.668;2022-12-18T02:28:45;68.97;;;29.52;;
29382;SDS011;16365;51.598;7.668;2022-12-18T02:31:19;67.80;;;31.10;;
29382;SDS011;16365;51.598;7.668;2022-12-18T02:33:50;67.30;;;30.73;;
29382;SDS011;16365;51.598;7.668;2022-12-18T02:36:20;64.72;;;28.38;;
29382;SDS011;16365;51.598;7.668;2022-12-18T02:38:48;69.40;;;29.23;;
29382;SDS011;16365;51.598;7.668;2022-12-18T02:41:17;64.47;;;28.05;;
29382;SDS011;16365;51.598;7.668;2022-12-18T02:44:06;73.00;;;29.80;;
29382;SDS011;16365;51.598;7.668;2022-12-18T02:57:49;65.57;;;29.13;;
29382;SDS011;16365;51.598;7.668;2022-12-18T03:00:20;69.43;;;30.15;;
29382;SDS011;16365;51.598;7.668;2022-12-18T03:02:52;67.53;;;28.50;;
29382;SDS011;16365;51.598;7.668;2022-12-18T03:05:38;63.22;;;28.50;;
29382;SDS011;16365;51.598;7.668;2022-12-18T03:08:12;68.40;;;27.58;;
29382;SDS011;16365;51.598;7.668;2022-12-18T03:10:52;72.22;;;29.90;;
29382;SDS011;16365;51.598;7.668;2022-12-18T03:13:28;66.95;;;28.88;;
29382;SDS011;16365;51.598;7.668;2022-12-18T03:15:57;64.82;;;28.45;;
29382;SDS011;16365;51.598;7.668;2022-12-18T03:18:29;67.63;;;29.88;;
29382;SDS011;16365;51.598;7.668;2022-12-18T03:21:00;71.35;;;28.98;;
29382;SDS011;16365;51.598;7.668;2022-12-18T03:23:35;63.55;;;27.17;;
29382;SDS011;16365;51.598;7.668;2022-12-18T03:26:07;65.93;;;28.27;;
29382;SDS011;16365;51.598;7.668;2022-12-18T03:28:37;61.65;;;28.48;;
29382;SDS011;16365;51.598;7.668;2022-12-18T03:31:08;67.15;;;29.65;;
29382;SDS011;16365;51.598;7.668;2022-12-18T03:34:22;69.88;;;29.55;;
29382;SDS011;16365;51.598;7.668;2022-12-18T03:36:32;64.50;;;26.83;;
29382;SDS011;16365;51.598;7.668;2022-12-18T03:38:58;67.60;;;29.95;;
29382;SDS011;16365;51.598;7.668;2022-12-18T03:41:32;64.03;;;27.25;;
29382;SDS011;16365;51.598;7.668;2022-12-18T03:44:10;68.88;;;28.40;;
29382;SDS011;16365;51.598;7.668;2022-12-18T03:47:00;69.70;;;28.05;;
29382;SDS011;16365;51.598;7.668;2022-12-18T03:52:13;59.50;;;25.80;;
29382;SDS011;16365;51.598;7.668;2022-12-18T03:54:46;67.80;;;28.10;;
29382;SDS011;16365;51.598;7.668;2022-12-18T03:57:15;63.80;;;28.17;;
29382;SDS011;16365;51.598;7.668;2022-12-18T03:59:45;58.55;;;26.52;;
29382;SDS011;16365;51.598;7.668;2022-12-18T04:02:16;59.95;;;26.73;;
29382;SDS011;16365;51.598;7.668;2022-12-18T04:04:44;67.70;;;27.67;;
29382;SDS011;16365;51.598;7.668;2022-12-18T04:07:13;65.80;;;27.33;;
29382;SDS011;16365;51.598;7.668;2022-12-18T04:09:40;59.63;;;26.40;;
29382;SDS011;16365;51.598;7.668;2022-12-18T04:12:09;66.28;;;28.23;;
29382;SDS011;16365;51.598;7.668;2022-12-18T04:14:35;61.90;;;26.65;;
29382;SDS011;16365;51.598;7.668;2022-12-18T04:17:02;59.55;;;24.83;;
29382;SDS011;16365;51.598;7.668;2022-12-18T04:19:29;45.45;;;20.63;;
29382;SDS011;16365;51.598;7.668;2022-12-18T04:21:56;61.97;;;27.23;;
29382;SDS011;16365;51.598;7.668;2022-12-18T04:24:22;56.67;;;26.25;;
29382;SDS011;16365;51.598;7.668;2022-12-18T04:26:49;66.55;;;26.85;;
29382;SDS011;16365;51.598;7.668;2022-12-18T04:29:15;60.55;;;26.88;;
29382;SDS011;16365;51.598;7.668;2022-12-18T04:31:42;63.00;;;25.80;;
29382;SDS011;16365;51.598;7.668;2022-12-18T04:34:08;59.35;;;25.48;;
29382;SDS011;16365;51.598;7.668;2022-12-18T04:36:35;63.90;;;25.98;;
29382;SDS011;16365;51.598;7.668;2022-12-18T04:39:01;64.20;;;25.88;;
29382;SDS011;16365;51.598;7.668;2022-12-18T04:41:27;63.30;;;26.75;;
29382;SDS011;16365;51.598;7.668;2022-12-18T04:43:54;66.85;;;28.23;;
29382;SDS011;16365;51.598;7.668;2022-12-18T04:46:20;63.90;;;27.27;;
29382;SDS011;16365;51.598;7.668;2022-12-18T04:48:47;56.25;;;25.70;;
29382;SDS011;16365;51.598;7.668;2022-12-18T04:51:13;57.65;;;25.33;;
29382;SDS011;16365;51.598;7.668;2022-12-18T04:53:39;65.00;;;27.08;;
29382;SDS011;16365;51.598;7.668;2022-12-18T04:58:38;66.43;;;26.95;;
29382;SDS011;16365;51.598;7.668;2022-12-18T05:01:06;65.28;;;27.40;;
29382;SDS011;16365;51.598;7.668;2022-12-18T05:03:36;59.60;;;26.15;;
29382;SDS011;16365;51.598;7.668;2022-12-18T05:06:04;64.30;;;26.30;;
29382;SDS011;16365;51.598;7.668;2022-12-18T05:08:32;57.88;;;26.48;;
29382;SDS011;16365;51.598;7.668;2022-12-18T05:11:00;64.05;;;27.40;;
29382;SDS011;16365;51.598;7.668;2022-12-18T05:13:31;56.33;;;24.95;;
29382;SDS011;16365;51.598;7.668;2022-12-18T05:15:58;62.10;;;26.15;;
29382;SDS011;16365;51.598;7.668;2022-12-18T05:18:25;65.63;;;26.65;;
29382;SDS011;16365;51.598;7.668;2022-12-18T05:20:52;57.83;;;25.90;;
29382;SDS011;16365;51.598;7.668;2022-12-18T05:23:19;62.85;;;25.70;;
29382;SDS011;16365;51.598;7.668;2022-12-18T05:25:57;61.90;;;25.98;;
29382;SDS011;16365;51.598;7.668;2022-12-18T05:28:26;59.97;;;26.20;;
29382;SDS011;16365;51.598;7.668;2022-12-18T05:30:55;61.45;;;25.83;;
29382;SDS011;16365;51.598;7.668;2022-12-18T05:33:24;57.83;;;24.92;;
29382;SDS011;16365;51.598;7.668;2022-12-18T05:35:52;59.22;;;24.85;;
29382;SDS011;16365;51.598;7.668;2022-12-18T05:38:24;54.30;;;24.75;;
29382;SDS011;16365;51.598;7.668;2022-12-18T05:40:52;58.03;;;25.10;;
29382;SDS011;16365;51.598;7.668;2022-12-18T05:43:19;63.15;;;26.25;;
29382;SDS011;16365;51.598;7.668;2022-12-18T05:45:48;58.72;;;25.50;;
29382;SDS011;16365;51.598;7.668;2022-12-18T05:48:15;50.00;;;20.90;;
29382;SDS011;16365;51.598;7.668;2022-12-18T05:50:43;45.60;;;22.63;;
29382;SDS011;16365;51.598;7.668;2022-12-18T05:53:14;56.20;;;25.00;;
29382;SDS011;16365;51.598;7.668;2022-12-18T05:55:42;57.63;;;24.58;;
29382;SDS011;16365;51.598;7.668;2022-12-18T05:58:10;53.05;;;23.27;;
29382;SDS011;16365;51.598;7.668;2022-12-18T06:00:39;49.13;;;22.85;;
29382;SDS011;16365;51.598;7.668;2022-12-18T06:03:07;58.25;;;24.52;;
29382;SDS011;16365;51.598;7.668;2022-12-18T06:05:38;57.55;;;24.15;;
29382;SDS011;16365;51.598;7.668;2022-12-18T06:08:06;51.25;;;23.25;;
29382;SDS011;16365;51.598;7.668;2022-12-18T06:10:33;52.78;;;22.33;;
29382;SDS011;16365;51.598;7.668;2022-12-18T06:13:00;55.00;;;24.17;;
29382;SDS011;16365;51.598;7.668;2022-12-18T06:15:27;55.38;;;23.20;;
29382;SDS011;16365;51.598;7.668;2022-12-18T06:17:53;50.63;;;22.05;;
29382;SDS011;16365;51.598;7.668;2022-12-18T06:20:20;49.88;;;22.33;;
29382;SDS011;16365;51.598;7.668;2022-12-18T06:22:47;49.60;;;21.52;;
29382;SDS011;16365;51.598;7.668;2022-12-18T06:25:13;52.80;;;21.55;;
29382;SDS011;16365;51.598;7.668;2022-12-18T06:27:40;49.53;;;21.85;;
29382;SDS011;16365;51.598;7.668;2022-12-18T06:30:08;46.75;;;21.05;;
29382;SDS011;16365;51.598;7.668;2022-12-18T06:32:35;49.40;;;20.93;;
29382;SDS011;16365;51.598;7.668;2022-12-18T06:35:01;49.25;;;21.50;;
29382;SDS011;16365;51.598;7.668;2022-12-18T06:37:27;45.50;;;20.23;;
29382;SDS011;16365;51.598;7.668;2022-12-18T06:39:54;45.47;;;18.70;;
29382;SDS011;16365;51.598;7.668;2022-12-18T06:42:22;42.88;;;20.42;;
29382;SDS011;16365;51.598;7.668;2022-12-18T06:44:49;42.42;;;19.80;;
29382;SDS011;16365;51.598;7.668;2022-12-18T06:47:16;39.47;;;18.58;;
29382;SDS011;16365;51.598;7.668;2022-12-18T06:49:42;43.42;;;18.60;;
29382;SDS011;16365;51.598;7.668;2022-12-18T06:52:09;40.80;;;18.83;;
29382;SDS011;16365;51.598;7.668;2022-12-18T06:54:35;41.15;;;17.80;;
29382;SDS011;16365;51.598;7.668;2022-12-18T06:57:02;39.58;;;17.05;;
29382;SDS011;16365;51.598;7.668;2022-12-18T06:59:28;36.45;;;16.80;;
29382;SDS011;16365;51.598;7.668;2022-12-18T07:01:55;46.35;;;17.98;;
29382;SDS011;16365;51.598;7.668;2022-12-18T07:04:21;37.38;;;16.80;;
29382;SDS011;16365;51.598;7.668;2022-12-18T07:06:48;37.33;;;16.90;;
29382;SDS011;16365;51.598;7.668;2022-12-18T07:09:17;35.38;;;16.02;;
29382;SDS011;16365;51.598;7.668;2022-12-18T07:11:43;38.33;;;14.85;;
29382;SDS011;16365;51.598;7.668;2022-12-18T07:14:09;33.80;;;14.07;;
29382;SDS011;16365;51.598;7.668;2022-12-18T07:16:36;33.15;;;13.68;;
29382;SDS011;16365;51.598;7.668;2022-12-18T07:19:02;29.27;;;13.95;;
29382;SDS011;16365;51.598;7.668;2022-12-18T07:21:29;29.58;;;14.60;;
29382;SDS011;16365;51.598;7.668;2022-12-18T07:23:55;38.33;;;15.65;;
29382;SDS011;16365;51.598;7.668;2022-12-18T07:26:22;32.58;;;14.90;;
29382;SDS011;16365;51.598;7.668;2022-12-18T07:28:49;32.40;;;14.05;;
29382;SDS011;16365;51.598;7.668;2022-12-18T07:31:19;27.20;;;12.68;;
29382;SDS011;16365;51.598;7.668;2022-12-18T07:33:47;28.25;;;13.38;;
29382;SDS011;16365;51.598;7.668;2022-12-18T07:36:16;26.25;;;12.63;;
29382;SDS011;16365;51.598;7.668;2022-12-18T07:38:43;31.85;;;13.73;;
29382;SDS011;16365;51.598;7.668;2022-12-18T07:41:12;29.40;;;14.05;;
29382;SDS011;16365;51.598;7.668;2022-12-18T07:43:40;26.83;;;11.93;;
29382;SDS011;16365;51.598;7.668;2022-12-18T07:46:08;25.42;;;11.73;;
29382;SDS011;16365;51.598;7.668;2022-12-18T07:48:37;27.45;;;12.07;;
29382;SDS011;16365;51.598;7.668;2022-12-18T07:51:04;23.27;;;10.77;;
29382;SDS011;16365;51.598;7.668;2022-12-18T07:53:32;25.23;;;10.95;;
29382;SDS011;16365;51.598;7.668;2022-12-18T07:56:00;28.63;;;12.30;;
29382;SDS011;16365;51.598;7.668;2022-12-18T07:58:49;26.30;;;11.55;;
29382;SDS011;16365;51.598;7.668;2022-12-18T08:01:15;22.25;;;10.27;;
29382;SDS011;16365;51.598;7.668;2022-12-18T08:03:42;26.58;;;10.95;;
29382;SDS011;16365;51.598;7.668;2022-12-18T08:06:09;22.70;;;11.13;;
29382;SDS011;16365;51.598;7.668;2022-12-18T08:08:35;28.17;;;11.75;;
29382;SDS011;16365;51.598;7.668;2022-12-18T08:11:02;26.13;;;11.68;;
29382;SDS011;16365;51.598;7.668;2022-12-18T08:13:29;24.65;;;11.95;;
29382;SDS011;16365;51.598;7.668;2022-12-18T08:15:59;25.45;;;11.68;;
29382;SDS011;16365;51.598;7.668;2022-12-18T08:18:31;24.40;;;11.98;;
29382;SDS011;16365;51.598;7.668;2022-12-18T08:21:06;24.08;;;11.07;;
29382;SDS011;16365;51.598;7.668;2022-12-18T08:23:41;24.65;;;11.15;;
29382;SDS011;16365;51.598;7.668;2022-12-18T08:26:09;22.38;;;10.52;;
29382;SDS011;16365;51.598;7.668;2022-12-18T08:28:37;20.98;;;10.82;;
29382;SDS011;16365;51.598;7.668;2022-12-18T08:31:04;25.50;;;11.65;;
29382;SDS011;16365;51.598;7.668;2022-12-18T08:33:31;26.02;;;11.55;;
29382;SDS011;16365;51.598;7.668;2022-12-18T08:35:58;23.13;;;10.82;;
29382;SDS011;16365;51.598;7.668;2022-12-18T08:38:25;23.77;;;11.18;;
29382;SDS011;16365;51.598;7.668;2022-12-18T08:41:02;23.00;;;10.60;;
29382;SDS011;16365;51.598;7.668;2022-12-18T08:43:30;20.13;;;9.95;;
29382;SDS011;16365;51.598;7.668;2022-12-18T08:46:15;20.48;;;9.90;;
29382;SDS011;16365;51.598;7.668;2022-12-18T08:48:42;19.13;;;8.03;;
29382;SDS011;16365;51.598;7.668;2022-12-18T08:51:09;19.48;;;9.48;;
29382;SDS011;16365;51.598;7.668;2022-12-18T08:53:36;21.60;;;11.05;;
29382;SDS011;16365;51.598;7.668;2022-12-18T08:56:04;19.63;;;10.25;;
29382;SDS011;16365;51.598;7.668;2022-12-18T08:58:31;27.52;;;10.80;;
29382;SDS011;16365;51.598;7.668;2022-12-18T09:01:01;27.45;;;11.43;;
29382;SDS011;16365;51.598;7.668;2022-12-18T09:03:31;20.30;;;9.80;;
29382;SDS011;16365;51.598;7.668;2022-12-18T09:05:59;23.53;;;10.07;;
29382;SDS011;16365;51.598;7.668;2022-12-18T09:08:25;24.67;;;11.00;;
29382;SDS011;16365;51.598;7.668;2022-12-18T09:10:52;21.67;;;10.68;;
29382;SDS011;16365;51.598;7.668;2022-12-18T09:13:19;23.55;;;10.75;;
29382;SDS011;16365;51.598;7.668;2022-12-18T09:15:47;24.27;;;11.18;;
29382;SDS011;16365;51.598;7.668;2022-12-18T09:18:16;20.50;;;10.23;;
29382;SDS011;16365;51.598;7.668;2022-12-18T09:20:44;26.67;;;10.70;;
29382;SDS011;16365;51.598;7.668;2022-12-18T09:23:11;23.67;;;10.60;;
29382;SDS011;16365;51.598;7.668;2022-12-18T09:25:38;21.40;;;10.70;;
29382;SDS011;16365;51.598;7.668;2022-12-18T09:28:10;21.38;;;10.70;;
29382;SDS011;16365;51.598;7.668;2022-12-18T09:30:39;24.70;;;10.30;;
29382;SDS011;16365;51.598;7.668;2022-12-18T09:33:08;22.08;;;10.10;;
29382;SDS011;16365;51.598;7.668;2022-12-18T09:35:36;21.52;;;10.38;;
29382;SDS011;16365;51.598;7.668;2022-12-18T09:38:03;16.83;;;8.27;;
29382;SDS011;16365;51.598;7.668;2022-12-18T09:40:33;21.27;;;9.32;;
29382;SDS011;16365;51.598;7.668;2022-12-18T09:43:03;24.65;;;10.02;;
29382;SDS011;16365;51.598;7.668;2022-12-18T09:45:38;25.17;;;9.68;;
29382;SDS011;16365;51.598;7.668;2022-12-18T09:48:21;21.83;;;10.07;;
29382;SDS011;16365;51.598;7.668;2022-12-18T09:50:53;23.27;;;9.73;;
29382;SDS011;16365;51.598;7.668;2022-12-18T09:53:26;18.75;;;9.27;;
29382;SDS011;16365;51.598;7.668;2022-12-18T09:55:56;20.35;;;9.70;;
29382;SDS011;16365;51.598;7.668;2022-12-18T10:00:58;20.30;;;9.77;;
29382;SDS011;16365;51.598;7.668;2022-12-18T10:03:24;21.05;;;9.50;;
29382;SDS011;16365;51.598;7.668;2022-12-18T10:06:08;22.35;;;9.52;;
29382;SDS011;16365;51.598;7.668;2022-12-18T10:20:48;16.02;;;9.20;;
29382;SDS011;16365;51.598;7.668;2022-12-18T10:23:20;19.38;;;9.38;;
29382;SDS011;16365;51.598;7.668;2022-12-18T10:26:00;21.35;;;8.55;;
29382;SDS011;16365;51.598;7.668;2022-12-18T10:28:30;19.08;;;9.23;;
29382;SDS011;16365;51.598;7.668;2022-12-18T10:30:59;19.45;;;9.55;;
29382;SDS011;16365;51.598;7.668;2022-12-18T10:33:28;18.25;;;9.60;;
29382;SDS011;16365;51.598;7.668;2022-12-18T10:35:56;20.88;;;9.68;;
29382;SDS011;16365;51.598;7.668;2022-12-18T10:43:22;21.23;;;9.45;;
29382;SDS011;16365;51.598;7.668;2022-12-18T10:54:19;18.95;;;8.68;;
29382;SDS011;16365;51.598;7.668;2022-12-18T10:56:48;19.60;;;8.88;;
29382;SDS011;16365;51.598;7.668;2022-12-18T10:59:15;20.98;;;9.10;;
29382;SDS011;16365;51.598;7.668;2022-12-18T11:01:47;18.30;;;9.05;;
29382;SDS011;16365;51.598;7.668;2022-12-18T11:04:24;17.65;;;8.77;;
29382;SDS011;16365;51.598;7.668;2022-12-18T11:07:03;17.95;;;8.75;;
29382;SDS011;16365;51.598;7.668;2022-12-18T11:11:59;18.13;;;8.60;;
29382;SDS011;16365;51.598;7.668;2022-12-18T11:14:29;19.20;;;8.80;;
29382;SDS011;16365;51.598;7.668;2022-12-18T11:17:00;20.70;;;9.52;;
29382;SDS011;16365;51.598;7.668;2022-12-18T11:19:55;19.73;;;10.05;;
29382;SDS011;16365;51.598;7.668;2022-12-18T11:22:27;20.58;;;9.93;;
29382;SDS011;16365;51.598;7.668;2022-12-18T11:25:06;19.80;;;9.85;;
29382;SDS011;16365;51.598;7.668;2022-12-18T11:28:00;19.65;;;9.15;;
29382;SDS011;16365;51.598;7.668;2022-12-18T11:30:32;17.10;;;9.10;;
29382;SDS011;16365;51.598;7.668;2022-12-18T11:33:13;17.85;;;9.43;;
29382;SDS011;16365;51.598;7.668;2022-12-18T11:35:47;21.95;;;11.18;;
29382;SDS011;16365;51.598;7.668;2022-12-18T11:38:20;20.92;;;9.65;;
29382;SDS011;16365;51.598;7.668;2022-12-18T11:41:00;22.77;;;10.63;;
29382;SDS011;16365;51.598;7.668;2022-12-18T11:43:38;21.33;;;10.70;;
29382;SDS011;16365;51.598;7.668;2022-12-18T11:46:15;21.05;;;9.45;;
29382;SDS011;16365;51.598;7.668;2022-12-18T11:54:45;22.02;;;10.02;;
29382;SDS011;16365;51.598;7.668;2022-12-18T12:00:02;18.70;;;10.48;;
29382;SDS011;16365;51.598;7.668;2022-12-18T12:05:36;18.60;;;10.07;;
29382;SDS011;16365;51.598;7.668;2022-12-18T12:10:43;20.20;;;9.85;;
29382;SDS011;16365;51.598;7.668;2022-12-18T12:13:23;20.95;;;10.13;;
29382;SDS011;16365;51.598;7.668;2022-12-18T12:16:16;21.00;;;9.82;;
29382;SDS011;16365;51.598;7.668;2022-12-18T12:18:55;19.90;;;10.25;;
29382;SDS011;16365;51.598;7.668;2022-12-18T12:21:41;17.20;;;8.75;;
29382;SDS011;16365;51.598;7.668;2022-12-18T12:24:22;20.50;;;10.05;;
29382;SDS011;16365;51.598;7.668;2022-12-18T12:30:05;17.60;;;9.45;;
29382;SDS011;16365;51.598;7.668;2022-12-18T12:38:43;20.77;;;10.23;;
29382;SDS011;16365;51.598;7.668;2022-12-18T12:41:18;19.77;;;10.05;;
29382;SDS011;16365;51.598;7.668;2022-12-18T12:44:09;18.08;;;11.15;;
29382;SDS011;16365;51.598;7.668;2022-12-18T12:46:44;23.73;;;10.52;;
29382;SDS011;16365;51.598;7.668;2022-12-18T12:49:14;20.42;;;10.55;;
29382;SDS011;16365;51.598;7.668;2022-12-18T12:51:50;20.75;;;11.20;;
29382;SDS011;16365;51.598;7.668;2022-12-18T12:54:24;22.05;;;11.13;;
29382;SDS011;16365;51.598;7.668;2022-12-18T12:59:40;20.67;;;10.77;;
29382;SDS011;16365;51.598;7.668;2022-12-18T13:02:21;22.35;;;11.85;;
29382;SDS011;16365;51.598;7.668;2022-12-18T13:05:03;23.25;;;10.70;;
29382;SDS011;16365;51.598;7.668;2022-12-18T13:07:47;19.80;;;10.95;;
29382;SDS011;16365;51.598;7.668;2022-12-18T13:10:25;24.00;;;11.52;;
29382;SDS011;16365;51.598;7.668;2022-12-18T13:12:58;21.52;;;11.20;;
29382;SDS011;16365;51.598;7.668;2022-12-18T13:15:31;20.50;;;10.57;;
29382;SDS011;16365;51.598;7.668;2022-12-18T13:20:35;19.02;;;10.90;;
29382;SDS011;16365;51.598;7.668;2022-12-18T13:25:55;24.00;;;10.93;;
29382;SDS011;16365;51.598;7.668;2022-12-18T13:28:49;20.00;;;10.82;;
29382;SDS011;16365;51.598;7.668;2022-12-18T13:31:13;19.27;;;10.02;;
29382;SDS011;16365;51.598;7.668;2022-12-18T13:36:52;17.90;;;9.32;;
29382;SDS011;16365;51.598;7.668;2022-12-18T13:39:22;30.40;;;12.05;;
29382;SDS011;16365;51.598;7.668;2022-12-18T13:44:32;19.13;;;10.98;;
29382;SDS011;16365;51.598;7.668;2022-12-18T13:49:54;20.65;;;10.32;;
29382;SDS011;16365;51.598;7.668;2022-12-18T13:52:22;24.83;;;10.32;;
29382;SDS011;16365;51.598;7.668;2022-12-18T13:54:55;18.63;;;10.35;;
29382;SDS011;16365;51.598;7.668;2022-12-18T13:57:27;23.08;;;11.60;;
29382;SDS011;16365;51.598;7.668;2022-12-18T14:02:58;21.13;;;10.88;;
29382;SDS011;16365;51.598;7.668;2022-12-18T14:05:26;20.48;;;10.88;;
29382;SDS011;16365;51.598;7.668;2022-12-18T14:08:02;21.08;;;11.02;;
29382;SDS011;16365;51.598;7.668;2022-12-18T14:10:32;19.75;;;10.07;;
29382;SDS011;16365;51.598;7.668;2022-12-18T14:13:16;23.00;;;11.00;;
29382;SDS011;16365;51.598;7.668;2022-12-18T14:15:47;23.23;;;11.20;;
29382;SDS011;16365;51.598;7.668;2022-12-18T14:21:21;18.13;;;9.98;;
29382;SDS011;16365;51.598;7.668;2022-12-18T14:24:04;21.95;;;10.65;;
29382;SDS011;16365;51.598;7.668;2022-12-18T14:26:45;22.50;;;10.20;;
29382;SDS011;16365;51.598;7.668;2022-12-18T14:29:19;24.33;;;10.73;;
29382;SDS011;16365;51.598;7.668;2022-12-18T14:34:47;18.77;;;10.27;;
29382;SDS011;16365;51.598;7.668;2022-12-18T14:37:23;19.95;;;10.07;;
29382;SDS011;16365;51.598;7.668;2022-12-18T14:39:55;23.77;;;10.73;;
29382;SDS011;16365;51.598;7.668;2022-12-18T14:42:25;18.50;;;9.90;;
29382;SDS011;16365;51.598;7.668;2022-12-18T14:48:17;18.52;;;10.25;;
29382;SDS011;16365;51.598;7.668;2022-12-18T14:51:03;18.33;;;9.68;;
29382;SDS011;16365;51.598;7.668;2022-12-18T14:53:34;18.05;;;10.35;;
29382;SDS011;16365;51.598;7.668;2022-12-18T14:56:13;21.90;;;11.52;;
29382;SDS011;16365;51.598;7.668;2022-12-18T14:58:46;23.20;;;12.10;;
29382;SDS011;16365;51.598;7.668;2022-12-18T15:01:28;40.72;;;18.33;;
29382;SDS011;16365;51.598;7.668;2022-12-18T15:03:58;30.15;;;13.30;;
29382;SDS011;16365;51.598;7.668;2022-12-18T15:06:36;34.22;;;16.25;;
29382;SDS011;16365;51.598;7.668;2022-12-18T15:09:22;39.97;;;19.40;;
29382;SDS011;16365;51.598;7.668;2022-12-18T15:11:55;49.53;;;18.90;;
29382;SDS011;16365;51.598;7.668;2022-12-18T15:16:55;43.53;;;17.88;;
29382;SDS011;16365;51.598;7.668;2022-12-18T15:22:20;34.72;;;15.40;;
29382;SDS011;16365;51.598;7.668;2022-12-18T15:24:48;35.50;;;15.77;;
29382;SDS011;16365;51.598;7.668;2022-12-18T15:27:36;34.67;;;17.60;;
29382;SDS011;16365;51.598;7.668;2022-12-18T15:32:34;32.53;;;16.15;;
29382;SDS011;16365;51.598;7.668;2022-12-18T15:35:11;32.97;;;16.15;;
29382;SDS011;16365;51.598;7.668;2022-12-18T15:37:41;28.48;;;15.57;;
29382;SDS011;16365;51.598;7.668;2022-12-18T15:40:11;27.70;;;13.48;;
29382;SDS011;16365;51.598;7.668;2022-12-18T15:42:42;26.77;;;13.43;;
29382;SDS011;16365;51.598;7.668;2022-12-18T15:45:28;28.13;;;12.60;;
29382;SDS011;16365;51.598;7.668;2022-12-18T15:47:55;25.63;;;12.50;;
29382;SDS011;16365;51.598;7.668;2022-12-18T15:50:22;25.55;;;13.90;;
29382;SDS011;16365;51.598;7.668;2022-12-18T15:52:49;27.40;;;14.68;;
29382;SDS011;16365;51.598;7.668;2022-12-18T15:55:22;29.40;;;14.55;;
29382;SDS011;16365;51.598;7.668;2022-12-18T15:58:09;23.27;;;12.73;;
29382;SDS011;16365;51.598;7.668;2022-12-18T16:00:38;20.75;;;11.82;;
29382;SDS011;16365;51.598;7.668;2022-12-18T16:03:06;25.27;;;13.40;;
29382;SDS011;16365;51.598;7.668;2022-12-18T16:05:33;22.08;;;11.68;;
29382;SDS011;16365;51.598;7.668;2022-12-18T16:07:59;19.70;;;11.13;;
29382;SDS011;16365;51.598;7.668;2022-12-18T16:10:26;18.92;;;11.10;;
29382;SDS011;16365;51.598;7.668;2022-12-18T16:12:52;20.13;;;10.18;;
29382;SDS011;16365;51.598;7.668;2022-12-18T16:15:22;55.10;;;23.45;;
29382;SDS011;16365;51.598;7.668;2022-12-18T16:17:50;25.75;;;13.68;;
29382;SDS011;16365;51.598;7.668;2022-12-18T16:20:19;26.70;;;13.13;;
29382;SDS011;16365;51.598;7.668;2022-12-18T16:22:48;36.22;;;17.52;;
29382;SDS011;16365;51.598;7.668;2022-12-18T16:25:16;53.22;;;21.40;;
29382;SDS011;16365;51.598;7.668;2022-12-18T16:27:51;43.22;;;19.27;;
29382;SDS011;16365;51.598;7.668;2022-12-18T16:30:20;43.17;;;15.73;;
29382;SDS011;16365;51.598;7.668;2022-12-18T16:32:48;30.73;;;14.82;;
29382;SDS011;16365;51.598;7.668;2022-12-18T16:35:15;25.33;;;11.63;;
29382;SDS011;16365;51.598;7.668;2022-12-18T16:37:42;27.10;;;12.38;;
29382;SDS011;16365;51.598;7.668;2022-12-18T16:40:13;49.72;;;22.30;;
29382;SDS011;16365;51.598;7.668;2022-12-18T16:42:42;84.07;;;36.20;;
29382;SDS011;16365;51.598;7.668;2022-12-18T16:45:11;59.08;;;26.52;;
29382;SDS011;16365;51.598;7.668;2022-12-18T16:47:41;75.47;;;31.73;;
29382;SDS011;16365;51.598;7.668;2022-12-18T16:50:08;69.57;;;29.40;;
29382;SDS011;16365;51.598;7.668;2022-12-18T16:52:35;68.20;;;28.02;;